Hauptseite
METAR-TAF:

METAR-TAF

Flughäfen :

Flughafen Tozeur-Nefta

Tozeur, Tunesien

Breite: 33-55N, Länge: 008-06E, Höhe: 87 m

Beobachtung

Neuester Wetterbericht von vor 19 Minuten, um 08:00 UTC
Wind 13 kt aus Nord/Nordost
Temperatur 18°C
Luftfeuchtigkeit 77%
Luftdruck 1014 hPa
Sichtweite 10 km oder mehr
Aufgelockert bewölkt in der Höhe von 3300 ft

METAR: DTTZ 160800Z 02013KT 9999 SCT033 18/14 Q1014 NOSIG

Zeit: 09:19 (08:19 UTC)

Prognose

Neuester Wetterbericht von vor 3 Stunden und 19 Minuten, um 05:00 UTC
Gültige Prognose vom 16 um 06 UTC bis 17 um 06 UTC
Wind 10 kt aus Ost/Nordost, Böen bis zu 25 kt
Sichtweite: 8000 m
Aufgelockert bewölkt in der Höhe von 3300 ft

TAF: DTTZ 160500Z 1606/1706 07010G25KT 8000 SCT033

Wetterbeobachtungen und Prognosen von mehr als 4000 Flughäfen (METAR und TAF Bericht).

Die verfügbaren Stationen werden durch gelbe und rote Markierungen auf der Karte dargestellt.

Führen Sie die Maus auf sie, um den Namen der Station zu sehen.

Darauf klicken, um die Beobachtung von Wetterbeobachtungen und Prognosen zu sehen.

Um die Karte zu ändern : klicken Sie auf den grünen Tasten mit einem schwarzen Kreuz Zum Vergrößern, auf den grünen Button mit einem Gedankenstrich zu verkleinern, oder auf die grünen Pfeile für benachbarte Karten.


METAR-TAF: